createdAt,value
2019-05-29T00:02:00.003Z,2.83
2019-05-29T00:04:28.255Z,2.97
2019-05-29T00:06:56.543Z,6.90
2019-05-29T00:09:25.163Z,5.10
2019-05-29T00:11:53.423Z,5.50
2019-05-29T00:14:27.135Z,6.63
2019-05-29T00:16:52.027Z,4.90
2019-05-29T00:19:20.304Z,7.87
2019-05-29T00:21:48.590Z,5.00
2019-05-29T00:24:16.843Z,4.97
2019-05-29T00:26:45.118Z,5.83
2019-05-29T00:29:13.796Z,4.60
2019-05-29T00:31:42.239Z,5.10
2019-05-29T00:34:11.049Z,6.20
2019-05-29T00:36:39.438Z,7.10
2019-05-29T00:39:08.660Z,5.97
2019-05-29T00:41:37.084Z,3.67
2019-05-29T00:44:05.339Z,4.27
2019-05-29T00:46:33.599Z,7.10
2019-05-29T00:49:02.174Z,4.03
2019-05-29T00:51:30.482Z,3.87
2019-05-29T00:53:58.837Z,3.73
2019-05-29T00:56:27.105Z,4.13
2019-05-29T00:58:55.379Z,6.17
2019-05-29T01:01:23.647Z,2.87
2019-05-29T01:03:52.174Z,4.10
2019-05-29T01:06:20.446Z,6.30
2019-05-29T01:08:48.886Z,4.60
2019-05-29T01:11:17.169Z,2.97
2019-05-29T01:13:45.485Z,5.20
2019-05-29T01:16:13.743Z,2.63
2019-05-29T01:18:42.016Z,3.80
2019-05-29T01:21:11.720Z,2.57
2019-05-29T01:23:40.374Z,2.37
2019-05-29T01:26:08.651Z,5.00
2019-05-29T01:28:36.984Z,4.47
2019-05-29T01:31:05.307Z,7.43
2019-05-29T01:33:33.576Z,3.73
2019-05-29T01:36:01.831Z,5.20
2019-05-29T01:38:30.119Z,5.43
2019-05-29T01:40:58.378Z,4.73
2019-05-29T01:43:27.658Z,3.90
2019-05-29T01:45:56.090Z,9.07
2019-05-29T01:48:24.386Z,4.20
2019-05-29T01:50:52.634Z,4.63
2019-05-29T01:53:21.753Z,5.07
2019-05-29T01:55:50.518Z,3.17
2019-05-29T01:58:20.328Z,7.30
2019-05-29T02:00:48.758Z,6.03
2019-05-29T02:03:17.762Z,6.40
2019-05-29T02:05:46.178Z,3.93
2019-05-29T02:08:14.440Z,5.03
2019-05-29T02:10:42.694Z,4.57
2019-05-29T02:13:10.967Z,5.50
2019-05-29T02:15:39.249Z,7.93
2019-05-29T02:18:07.515Z,4.17
2019-05-29T02:20:36.342Z,3.57
2019-05-29T02:23:04.618Z,6.23
2019-05-29T02:25:32.867Z,3.73
2019-05-29T02:28:01.132Z,3.50
2019-05-29T02:30:30.778Z,5.07
2019-05-29T02:32:59.383Z,4.00
2019-05-29T02:35:29.618Z,4.87
2019-05-29T02:37:57.650Z,3.60
2019-05-29T02:40:28.056Z,3.83
2019-05-29T02:42:56.651Z,4.73
2019-05-29T02:45:49.295Z,7.07
2019-05-29T02:47:55.507Z,2.20
2019-05-29T02:50:24.085Z,4.53
2019-05-29T02:52:52.430Z,3.27
2019-05-29T02:55:21.200Z,5.97
2019-05-29T02:57:51.012Z,4.77
2019-05-29T03:00:23.414Z,3.90
2019-05-29T03:02:51.792Z,5.70
2019-05-29T03:05:21.713Z,4.10
2019-05-29T03:07:50.040Z,4.27
2019-05-29T03:10:18.306Z,5.53
2019-05-29T03:12:46.563Z,3.93
2019-05-29T03:15:14.838Z,6.33
2019-05-29T03:17:43.099Z,4.70
2019-05-29T03:20:11.435Z,4.03
2019-05-29T03:22:39.707Z,5.27
2019-05-29T03:25:08.001Z,3.90
2019-05-29T03:27:38.057Z,3.67
2019-05-29T03:30:06.805Z,6.60
2019-05-29T03:32:45.574Z,3.03
2019-05-29T03:35:06.791Z,4.13
2019-05-29T03:37:35.140Z,4.50
2019-05-29T03:40:05.643Z,5.30
2019-05-29T03:42:34.478Z,3.93
2019-05-29T03:45:02.854Z,6.07
2019-05-29T03:47:33.017Z,4.07
2019-05-29T03:50:01.103Z,3.60
2019-05-29T03:52:30.253Z,5.20
2019-05-29T03:54:58.703Z,5.27
2019-05-29T03:57:27.708Z,5.20
2019-05-29T03:59:56.624Z,4.57
2019-05-29T04:02:26.643Z,4.80
2019-05-29T04:04:55.051Z,3.50
2019-05-29T04:07:23.299Z,3.07
2019-05-29T04:09:51.575Z,4.07
2019-05-29T04:12:19.838Z,5.77
2019-05-29T04:14:48.468Z,4.63
2019-05-29T04:17:16.819Z,3.70
2019-05-29T04:19:45.130Z,2.70
2019-05-29T04:22:13.402Z,4.83
2019-05-29T04:24:41.659Z,6.17
2019-05-29T04:27:12.628Z,4.87
2019-05-29T04:29:41.950Z,5.60
2019-05-29T04:32:10.212Z,5.23
2019-05-29T04:34:39.968Z,4.60
2019-05-29T04:37:08.390Z,4.93
2019-05-29T04:39:37.012Z,4.10
2019-05-29T04:42:05.912Z,3.27
2019-05-29T04:44:36.243Z,4.63
2019-05-29T04:47:11.117Z,5.10
2019-05-29T04:49:35.754Z,4.17
2019-05-29T04:52:04.151Z,6.73
2019-05-29T04:54:33.385Z,4.53
2019-05-29T04:57:01.750Z,2.40
2019-05-29T04:59:30.855Z,4.53
2019-05-29T05:01:59.266Z,4.33
2019-05-29T05:04:27.517Z,2.93
2019-05-29T05:06:55.804Z,3.13
2019-05-29T05:09:24.050Z,2.93
2019-05-29T05:11:52.495Z,3.53
2019-05-29T05:14:20.766Z,12.73
2019-05-29T05:16:49.031Z,8.40
2019-05-29T05:19:17.287Z,6.60
2019-05-29T05:21:45.555Z,4.57
2019-05-29T05:24:13.819Z,11.67
2019-05-29T05:26:42.093Z,8.30
2019-05-29T05:29:10.365Z,6.83
2019-05-29T05:31:38.695Z,9.50
2019-05-29T05:34:06.976Z,8.03
2019-05-29T05:36:35.238Z,16.50
2019-05-29T05:39:04.963Z,6.77
2019-05-29T05:41:33.239Z,6.50
2019-05-29T05:44:01.493Z,7.93
2019-05-29T05:46:30.865Z,11.40
2019-05-29T05:48:59.411Z,9.30
2019-05-29T05:51:27.957Z,5.60
2019-05-29T05:53:56.275Z,7.13
2019-05-29T05:56:24.527Z,4.73
2019-05-29T05:58:52.806Z,13.13
2019-05-29T06:01:21.087Z,6.53
2019-05-29T06:03:49.355Z,4.30
2019-05-29T06:06:17.618Z,11.23
2019-05-29T06:08:45.979Z,6.03
2019-05-29T06:11:14.230Z,7.63
2019-05-29T06:13:42.885Z,6.00
2019-05-29T06:16:11.255Z,11.33
2019-05-29T06:18:40.576Z,7.47
2019-05-29T06:21:08.959Z,8.10
2019-05-29T06:23:37.478Z,10.83
2019-05-29T06:26:05.743Z,5.17
2019-05-29T06:28:35.030Z,3.90
2019-05-29T06:31:03.411Z,5.70
2019-05-29T06:33:31.715Z,4.17
2019-05-29T06:35:59.997Z,4.13
2019-05-29T06:38:28.323Z,6.63
2019-05-29T06:40:56.608Z,8.90
2019-05-29T06:43:25.615Z,6.33
2019-05-29T06:45:54.638Z,7.93
2019-05-29T06:48:42.355Z,5.13
2019-05-29T06:50:58.714Z,7.87
2019-05-29T06:53:27.000Z,7.93
2019-05-29T06:55:56.657Z,8.17
2019-05-29T06:58:25.355Z,4.83
2019-05-29T07:00:53.623Z,17.33
2019-05-29T07:03:21.891Z,6.97
2019-05-29T07:05:52.523Z,6.87
2019-05-29T07:08:35.222Z,5.93
2019-05-29T07:10:50.180Z,6.87
2019-05-29T07:13:19.707Z,7.43
2019-05-29T07:15:47.971Z,10.93
2019-05-29T07:18:16.261Z,11.40
2019-05-29T07:20:44.895Z,11.30
2019-05-29T07:23:13.294Z,12.67
2019-05-29T07:25:42.883Z,15.10
2019-05-29T07:28:11.348Z,13.07
2019-05-29T07:30:42.738Z,5.77
2019-05-29T07:33:09.614Z,6.80
2019-05-29T07:35:37.890Z,10.57
2019-05-29T07:38:06.174Z,9.83
2019-05-29T07:40:35.972Z,10.57
2019-05-29T07:43:04.438Z,9.40
2019-05-29T07:45:32.715Z,7.73
2019-05-29T07:48:00.992Z,7.20
2019-05-29T07:50:29.283Z,8.67
2019-05-29T07:52:59.295Z,8.63
2019-05-29T07:55:27.701Z,7.77
2019-05-29T07:57:56.015Z,7.50
2019-05-29T08:00:34.729Z,7.40
2019-05-29T08:02:54.298Z,9.83
2019-05-29T08:05:22.562Z,7.27
2019-05-29T08:07:50.844Z,10.93
2019-05-29T08:10:19.531Z,8.67
2019-05-29T08:12:53.182Z,12.60
2019-05-29T08:15:17.887Z,9.60
2019-05-29T08:17:46.294Z,7.07
2019-05-29T08:20:15.088Z,6.63
2019-05-29T08:22:44.404Z,10.13
2019-05-29T08:25:13.091Z,5.97
2019-05-29T08:27:42.508Z,5.57
2019-05-29T08:30:10.991Z,5.87
2019-05-29T08:32:40.681Z,6.30
2019-05-29T08:35:09.097Z,7.43
2019-05-29T08:37:37.375Z,3.67
2019-05-29T08:40:08.866Z,6.83
2019-05-29T08:42:37.127Z,7.07
2019-05-29T08:45:06.843Z,7.50
2019-05-29T08:47:35.104Z,6.00
2019-05-29T08:50:17.211Z,7.30
2019-05-29T08:52:34.147Z,5.83
2019-05-29T08:55:02.408Z,6.67
2019-05-29T08:57:30.701Z,5.17
2019-05-29T08:59:58.985Z,4.83
2019-05-29T09:02:27.249Z,3.73
2019-05-29T09:04:55.522Z,5.67
2019-05-29T09:07:23.793Z,5.13
2019-05-29T09:09:53.239Z,8.03
2019-05-29T09:12:21.723Z,5.23
2019-05-29T09:14:49.979Z,4.07
2019-05-29T09:17:18.527Z,5.70
2019-05-29T09:19:46.975Z,5.10
2019-05-29T09:22:16.444Z,4.70
2019-05-29T09:24:45.191Z,8.17
2019-05-29T09:27:14.558Z,5.10
2019-05-29T09:29:43.645Z,7.17
2019-05-29T09:32:13.473Z,5.93
2019-05-29T09:34:42.255Z,4.50
2019-05-29T09:37:10.531Z,5.13
2019-05-29T09:39:38.784Z,3.83
2019-05-29T09:42:07.047Z,4.53
2019-05-29T09:44:39.235Z,5.57
2019-05-29T09:47:05.313Z,3.83
2019-05-29T09:49:33.607Z,5.23
2019-05-29T09:52:02.078Z,4.10
2019-05-29T09:54:30.507Z,6.40
2019-05-29T09:56:59.640Z,2.43
2019-05-29T09:59:28.836Z,3.87
2019-05-29T10:01:59.960Z,6.67
2019-05-29T10:04:28.374Z,5.10
2019-05-29T10:06:57.579Z,4.37
2019-05-29T10:09:26.328Z,4.07
2019-05-29T10:11:58.515Z,2.83
2019-05-29T10:14:24.752Z,6.33
2019-05-29T10:16:56.102Z,3.67
2019-05-29T10:19:23.020Z,2.93
2019-05-29T10:21:51.283Z,5.77
2019-05-29T10:24:19.566Z,5.53
2019-05-29T10:26:47.840Z,5.07
2019-05-29T10:29:16.245Z,3.10
2019-05-29T10:31:46.781Z,4.77
2019-05-29T10:34:14.559Z,2.43
2019-05-29T10:36:46.872Z,6.93
2019-05-29T10:39:13.146Z,3.83
2019-05-29T10:41:42.601Z,2.63
2019-05-29T10:44:12.836Z,2.70
2019-05-29T10:46:41.114Z,4.20
2019-05-29T10:49:09.379Z,3.43
2019-05-29T10:51:37.646Z,5.83
2019-05-29T10:54:05.940Z,3.37
2019-05-29T10:56:34.201Z,3.53
2019-05-29T10:59:02.459Z,4.07
2019-05-29T11:01:30.743Z,4.23
2019-05-29T11:03:59.121Z,5.17
2019-05-29T11:06:27.466Z,4.10
2019-05-29T11:08:56.272Z,6.53
2019-05-29T11:11:24.786Z,3.90
2019-05-29T11:13:53.045Z,5.20
2019-05-29T11:16:21.315Z,14.60
2019-05-29T11:18:49.576Z,16.60
2019-05-29T11:21:17.874Z,8.17
2019-05-29T11:23:46.191Z,13.60
2019-05-29T11:26:14.468Z,25.90
2019-05-29T11:28:42.747Z,67.87
2019-05-29T11:31:11.034Z,78.53
2019-05-29T11:33:39.363Z,55.57
2019-05-29T11:36:12.815Z,25.83
2019-05-29T11:38:37.616Z,26.33
2019-05-29T11:41:25.021Z,26.17
2019-05-29T11:43:37.490Z,25.97
2019-05-29T11:46:05.776Z,28.10
2019-05-29T11:48:34.036Z,18.23
2019-05-29T11:51:02.476Z,20.33
2019-05-29T11:53:30.873Z,20.90
2019-05-29T11:55:59.844Z,32.30
2019-05-29T11:58:31.499Z,13.90
2019-05-29T12:00:59.221Z,17.57
2019-05-29T12:03:27.623Z,22.73
2019-05-29T12:05:56.293Z,17.80
2019-05-29T12:08:25.877Z,15.20
2019-05-29T12:10:55.316Z,11.97
2019-05-29T12:13:23.724Z,14.30
2019-05-29T12:15:52.049Z,8.80
2019-05-29T12:18:24.358Z,7.43
2019-05-29T12:20:51.955Z,9.93
2019-05-29T12:23:26.512Z,10.87
2019-05-29T12:26:11.532Z,10.93
2019-05-29T12:28:20.907Z,12.90
2019-05-29T12:30:49.210Z,17.80
2019-05-29T12:33:17.534Z,24.03
2019-05-29T12:35:45.786Z,7.40
2019-05-29T12:38:14.082Z,10.37
2019-05-29T12:40:42.834Z,14.37
2019-05-29T12:43:26.027Z,10.90
2019-05-29T12:45:41.213Z,12.07
2019-05-29T12:48:13.299Z,12.70
2019-05-29T12:50:39.539Z,10.43
2019-05-29T12:53:08.119Z,15.53
2019-05-29T12:55:36.379Z,8.03
2019-05-29T12:58:04.716Z,7.50
2019-05-29T13:00:32.975Z,6.20
2019-05-29T13:03:02.928Z,10.77
2019-05-29T13:05:31.271Z,10.50
2019-05-29T13:08:00.822Z,10.13
2019-05-29T13:10:30.913Z,9.73
2019-05-29T13:13:04.807Z,6.90
2019-05-29T13:15:29.309Z,8.27
2019-05-29T13:18:02.459Z,7.30
2019-05-29T13:20:27.652Z,16.20
2019-05-29T13:22:57.461Z,11.73
2019-05-29T13:25:26.079Z,7.77
2019-05-29T13:27:57.313Z,12.00
2019-05-29T13:30:24.374Z,7.23
2019-05-29T13:32:52.721Z,32.83
2019-05-29T13:35:22.467Z,10.97
2019-05-29T13:37:50.946Z,17.23
2019-05-29T13:40:19.276Z,8.73
2019-05-29T13:42:47.615Z,15.63
2019-05-29T13:45:18.401Z,13.23
2019-05-29T13:47:46.879Z,12.90
2019-05-29T13:50:15.206Z,11.87
2019-05-29T13:52:43.486Z,16.33
2019-05-29T13:55:11.839Z,16.50
2019-05-29T13:57:40.376Z,5.70
2019-05-29T14:00:30.376Z,11.63
2019-05-29T14:02:43.254Z,10.27
2019-05-29T14:05:13.059Z,12.13
2019-05-29T14:07:41.679Z,10.50
2019-05-29T14:10:10.608Z,6.30
2019-05-29T14:12:40.396Z,8.10
2019-05-29T14:15:12.632Z,9.53
2019-05-29T14:17:41.667Z,4.90
2019-05-29T14:20:09.951Z,13.63
2019-05-29T14:22:38.387Z,4.20
2019-05-29T14:25:07.498Z,5.90
2019-05-29T14:27:36.000Z,7.40
2019-05-29T14:30:08.446Z,4.57
2019-05-29T14:32:36.465Z,7.53
2019-05-29T14:35:08.993Z,9.80
2019-05-29T14:37:37.367Z,9.07
2019-05-29T14:40:05.923Z,7.07
2019-05-29T14:42:34.331Z,6.10
2019-05-29T14:45:03.983Z,7.53
2019-05-29T14:47:32.707Z,4.93
2019-05-29T14:50:02.400Z,9.07
2019-05-29T14:52:30.811Z,7.43
2019-05-29T14:54:59.084Z,4.87
2019-05-29T14:57:27.446Z,4.00
2019-05-29T14:59:57.779Z,6.57
2019-05-29T15:02:26.592Z,9.03
2019-05-29T15:05:14.982Z,6.27
2019-05-29T15:07:43.501Z,5.33
2019-05-29T15:10:22.666Z,4.90
2019-05-29T15:12:42.438Z,5.87
2019-05-29T15:15:16.358Z,9.23
2019-05-29T15:17:44.123Z,3.87
2019-05-29T15:20:14.456Z,5.97
2019-05-29T15:22:42.875Z,3.03
2019-05-29T15:25:19.979Z,4.40
2019-05-29T15:27:42.343Z,3.20
2019-05-29T15:30:12.742Z,4.07
2019-05-29T15:32:41.169Z,3.90
2019-05-29T15:35:13.813Z,3.47
2019-05-29T15:37:39.660Z,4.93
2019-05-29T15:40:08.783Z,6.33
2019-05-29T15:42:37.362Z,3.87
2019-05-29T15:45:09.860Z,4.33
2019-05-29T15:47:38.295Z,4.23
2019-05-29T15:50:09.005Z,6.13
2019-05-29T15:52:37.559Z,3.87
2019-05-29T15:55:21.170Z,2.63
2019-05-29T15:57:37.120Z,2.63
2019-05-29T16:00:07.081Z,5.53
2019-05-29T16:02:35.392Z,3.73
2019-05-29T16:05:04.704Z,4.33
2019-05-29T16:07:33.036Z,3.60
2019-05-29T16:10:01.287Z,3.87
2019-05-29T16:12:31.033Z,3.60
2019-05-29T16:14:59.615Z,3.73
2019-05-29T16:17:27.915Z,1.50
2019-05-29T16:19:56.220Z,3.50
2019-05-29T16:22:24.491Z,3.87
2019-05-29T16:24:52.738Z,5.20
2019-05-29T16:27:22.293Z,4.80
2019-05-29T16:29:50.738Z,5.13
2019-05-29T16:32:20.323Z,5.27
2019-05-29T16:34:48.609Z,3.83
2019-05-29T16:37:17.375Z,4.03
2019-05-29T16:39:45.919Z,3.57
2019-05-29T16:42:14.213Z,2.50
2019-05-29T16:44:42.978Z,2.97
2019-05-29T16:47:12.458Z,4.47
2019-05-29T16:49:40.886Z,3.97
2019-05-29T16:52:09.183Z,5.03
2019-05-29T16:54:37.435Z,2.47
2019-05-29T16:57:05.874Z,3.10
2019-05-29T16:59:34.157Z,3.37
2019-05-29T17:02:02.411Z,3.40
2019-05-29T17:04:30.675Z,3.97
2019-05-29T17:06:58.943Z,3.13
2019-05-29T17:09:27.223Z,1.97
2019-05-29T17:11:55.482Z,4.90
2019-05-29T17:14:25.036Z,3.13
2019-05-29T17:16:53.486Z,2.37
2019-05-29T17:19:23.049Z,2.70
2019-05-29T17:21:51.623Z,1.80
2019-05-29T17:24:20.933Z,2.50
2019-05-29T17:26:49.333Z,4.03
2019-05-29T17:29:18.896Z,2.80
2019-05-29T17:31:47.219Z,4.03
2019-05-29T17:34:16.807Z,6.43
2019-05-29T17:36:45.254Z,6.73
2019-05-29T17:39:15.162Z,8.07
2019-05-29T17:41:43.606Z,6.80
2019-05-29T17:44:11.886Z,6.23
2019-05-29T17:46:40.135Z,7.90
2019-05-29T17:49:09.788Z,13.93
2019-05-29T17:51:38.490Z,7.90
2019-05-29T17:54:06.775Z,6.93
2019-05-29T17:56:36.987Z,5.60
2019-05-29T17:59:05.043Z,4.93
2019-05-29T18:01:33.380Z,6.13
2019-05-29T18:04:01.655Z,8.37
2019-05-29T18:06:30.019Z,5.67
2019-05-29T18:08:58.438Z,7.03
2019-05-29T18:11:27.664Z,7.43
2019-05-29T18:13:56.071Z,7.07
2019-05-29T18:16:25.556Z,4.57
2019-05-29T18:18:53.970Z,3.77
2019-05-29T18:21:23.519Z,4.17
2019-05-29T18:23:53.523Z,4.33
2019-05-29T18:26:22.164Z,5.33
2019-05-29T18:28:50.432Z,5.57
2019-05-29T18:31:18.685Z,4.27
2019-05-29T18:33:47.618Z,3.10
2019-05-29T18:36:15.975Z,4.27
2019-05-29T18:38:44.247Z,8.73
2019-05-29T18:41:12.530Z,9.70
2019-05-29T18:43:40.824Z,13.13
2019-05-29T18:46:09.078Z,7.80
2019-05-29T18:48:37.374Z,12.10
2019-05-29T18:51:05.744Z,9.23
2019-05-29T18:53:34.013Z,10.90
2019-05-29T18:56:02.283Z,6.90
2019-05-29T18:58:30.777Z,9.37
2019-05-29T19:00:59.617Z,10.90
2019-05-29T19:03:27.874Z,10.77
2019-05-29T19:05:56.134Z,7.07
2019-05-29T19:08:25.659Z,8.77
2019-05-29T19:10:55.402Z,9.43
2019-05-29T19:13:23.805Z,10.80
2019-05-29T19:15:52.210Z,10.90
2019-05-29T19:18:21.904Z,8.63
2019-05-29T19:20:50.235Z,9.10
2019-05-29T19:23:18.495Z,17.20
2019-05-29T19:25:46.767Z,10.00
2019-05-29T19:28:15.091Z,11.93
2019-05-29T19:30:43.394Z,5.70
2019-05-29T19:33:12.146Z,8.23
2019-05-29T19:35:40.446Z,10.30
2019-05-29T19:38:09.074Z,8.97
2019-05-29T19:40:38.981Z,8.30
2019-05-29T19:43:07.254Z,4.37
2019-05-29T19:45:35.531Z,5.60
2019-05-29T19:48:03.848Z,6.77
2019-05-29T19:50:32.899Z,5.60
2019-05-29T19:53:01.342Z,4.53
2019-05-29T19:55:32.909Z,14.93
2019-05-29T19:57:59.615Z,7.87
2019-05-29T20:00:28.124Z,7.27
2019-05-29T20:02:56.456Z,9.37
2019-05-29T20:05:24.815Z,8.03
2019-05-29T20:07:53.106Z,8.10
2019-05-29T20:10:21.379Z,7.57
2019-05-29T20:12:49.658Z,7.07
2019-05-29T20:15:17.929Z,6.20
2019-05-29T20:17:46.226Z,4.80
2019-05-29T20:20:14.503Z,6.50
2019-05-29T20:22:42.789Z,6.33
2019-05-29T20:25:13.612Z,6.43
2019-05-29T20:27:42.496Z,9.53
2019-05-29T20:30:18.567Z,8.33
2019-05-29T20:32:47.200Z,9.17
2019-05-29T20:35:16.317Z,8.37
2019-05-29T20:37:45.629Z,7.10
2019-05-29T20:40:13.895Z,6.13
2019-05-29T20:42:42.548Z,8.40
2019-05-29T20:45:10.894Z,4.17
2019-05-29T20:47:40.087Z,6.50
2019-05-29T20:50:08.757Z,4.60
2019-05-29T20:52:37.411Z,7.73
2019-05-29T20:55:05.851Z,6.17
2019-05-29T20:57:34.123Z,7.67
2019-05-29T21:00:02.379Z,6.60
2019-05-29T21:02:31.932Z,7.57
2019-05-29T21:05:00.413Z,5.60
2019-05-29T21:07:28.703Z,4.53
2019-05-29T21:09:57.006Z,4.10
2019-05-29T21:12:25.294Z,7.33
2019-05-29T21:14:55.264Z,4.87
2019-05-29T21:17:23.592Z,5.40
2019-05-29T21:19:51.936Z,4.13
2019-05-29T21:22:20.199Z,3.80
2019-05-29T21:24:59.583Z,4.17
2019-05-29T21:27:18.487Z,5.27
2019-05-29T21:29:46.745Z,4.97
2019-05-29T21:32:15.329Z,5.57
2019-05-29T21:34:43.972Z,4.67
2019-05-29T21:37:12.335Z,10.63
2019-05-29T21:39:40.591Z,8.10
2019-05-29T21:42:08.847Z,2.73
2019-05-29T21:44:37.149Z,4.60
2019-05-29T21:47:05.470Z,8.13
2019-05-29T21:49:33.759Z,6.83
2019-05-29T21:52:02.014Z,4.17
2019-05-29T21:54:30.278Z,3.00
2019-05-29T21:56:58.535Z,3.57
2019-05-29T21:59:26.807Z,5.93
2019-05-29T22:01:55.063Z,3.20
2019-05-29T22:04:23.350Z,6.40
2019-05-29T22:06:51.611Z,3.07
2019-05-29T22:09:19.883Z,4.87
2019-05-29T22:11:48.141Z,4.67
2019-05-29T22:14:16.414Z,8.30
2019-05-29T22:16:44.673Z,5.87
2019-05-29T22:19:12.938Z,4.27
2019-05-29T22:21:41.199Z,8.70
2019-05-29T22:24:09.468Z,3.80
2019-05-29T22:26:37.754Z,6.03
2019-05-29T22:29:18.040Z,4.90
2019-05-29T22:31:36.055Z,3.33
2019-05-29T22:34:04.328Z,3.83
2019-05-29T22:36:32.604Z,1.70
2019-05-29T22:39:01.789Z,5.27
2019-05-29T22:41:30.316Z,5.03
2019-05-29T22:43:59.724Z,2.27
2019-05-29T22:46:28.026Z,3.50
2019-05-29T22:48:56.325Z,2.63
2019-05-29T22:51:24.654Z,4.97
2019-05-29T22:53:53.960Z,3.40
2019-05-29T22:56:22.374Z,3.57
2019-05-29T22:58:51.895Z,6.87
2019-05-29T23:01:20.313Z,2.83
2019-05-29T23:03:48.589Z,4.73
2019-05-29T23:06:16.907Z,4.30
2019-05-29T23:08:45.167Z,3.87
2019-05-29T23:11:23.387Z,3.43
2019-05-29T23:13:52.251Z,3.63
2019-05-29T23:16:20.718Z,3.53
2019-05-29T23:18:49.048Z,3.03
2019-05-29T23:21:17.322Z,4.30
2019-05-29T23:23:45.579Z,6.23
2019-05-29T23:26:14.116Z,7.17
2019-05-29T23:28:42.495Z,2.77
2019-05-29T23:31:10.836Z,5.80
2019-05-29T23:33:39.492Z,5.20
2019-05-29T23:36:08.164Z,3.70
2019-05-29T23:38:36.442Z,2.67
2019-05-29T23:41:05.047Z,3.73
2019-05-29T23:43:33.320Z,4.77
2019-05-29T23:46:02.379Z,3.47
2019-05-29T23:48:31.083Z,4.43
2019-05-29T23:50:59.795Z,3.63
2019-05-29T23:53:28.073Z,4.10
2019-05-29T23:55:57.586Z,3.67
2019-05-29T23:58:26.555Z,1.53
